KDXRKCDW

Guest
Details From KDXR - Danbury Muni
To KCDW - Essex County
Flight Number -
Tags Routegen Generated
Created
Modified
Stats Distance 47 nm / 87 km
Max Altitude 100 ft / 30 m
Waypoints 5
Social Downloads 2
Likes 0
Share VATSIM

Download

Looking for another format? Having issues loading an existing format? Contact us
Advertisement - Login to hide

Notes

Departing runway 24 KDXR. Arriving runway 2 KCDW.

Route

KDXR +41.34_-073.58 +41.14_-073.91 +40.94_-074.23 KCDW

ID Type Via Altitude Latitude Longitude Leg Dist Tot Dist Heading (true) Name
O KDXR APT - 0 ft / 0 m 41.36869˚ -73.49076˚ - 0 nm - -
+41.34_-073.58 LATLON - 100 ft / 30 m 41.34354˚ -73.58116˚ 4 nm 4 nm 250° / 250° -
+41.14_-073.91 LATLON - 100 ft / 30 m 41.14260˚ -73.90607˚ 18 nm 23 nm 231° / 230° -
+40.94_-074.23 LATLON - 100 ft / 30 m 40.94167˚ -74.23099˚ 19 nm 42 nm 231° / 231° -
O KCDW APT - 0 ft / 0 m 40.87868˚ -74.27815˚ 4 nm 46 nm 210° / 209° Essex County

Altitude Profile

Advertisement - Login to hide

KDXR

Details ICAO KDXR (DXR)
Name Danbury
Region United States
Timezone America/New_York (UTC-5.0)
Stats Elevation 458 ft / 140 m (AMSL)
Location 41.371685° -73.481981°
Runways 2
Magnetic Variation 13.316° W

METAR

KDXR 111053Z AUTO 21003KT 10SM BKN045 OVC070 00/M06 A2997 RMK AO2 SLP154 T00001061

Decode

TAF

Not found

Departure Runways

ID Width Length Bearing (true) Bearing (mag) Surface Threshold Offset Overrun Length
08 151 ft / 46 m 4,414 ft / 1,345 m 69.68° 83.00° Asphalt 367 ft / 112 m 0 ft / 0 m
17 98 ft / 30 m 3,138 ft / 956 m 153.16° 166.48° Asphalt 223 ft / 68 m 0 ft / 0 m
26 151 ft / 46 m 4,414 ft / 1,345 m 249.69° 263.01° Asphalt 735 ft / 224 m 0 ft / 0 m
35 98 ft / 30 m 3,138 ft / 956 m 333.17° 346.49° Asphalt 230 ft / 70 m 0 ft / 0 m

KCDW

Details ICAO KCDW (CDW)
Name Essex County
Region United States
Timezone America/New_York (UTC-5.0)
Stats Elevation 172 ft / 52 m (AMSL)
Location 40.875473° -74.281219°
Runways 2
Magnetic Variation 12.797° W

METAR

KCDW 111053Z AUTO 22003KT 10SM OVC065 00/M06 A3001 RMK AO2 SLP168 T00001056 TSNO

Decode

TAF

Not found

Destination Runways

ID Width Length Bearing (true) Bearing (mag) Surface Threshold Offset Overrun Length
04 82 ft / 25 m 4,580 ft / 1,396 m 29.48° 42.28° Asphalt 381 ft / 116 m 0 ft / 0 m
10 82 ft / 25 m 3,701 ft / 1,128 m 83.19° 95.99° Asphalt 164 ft / 50 m 0 ft / 0 m
22 82 ft / 25 m 4,580 ft / 1,396 m 209.49° 222.29° Asphalt 161 ft / 49 m 0 ft / 0 m
28 82 ft / 25 m 3,701 ft / 1,128 m 263.20° 276.00° Asphalt 820 ft / 250 m 0 ft / 0 m

Approach Navaids

Runway Type Ident Frequency Range Bearing (true) Bearing (mag) Slope Elevation
22 Localiser ICDW 109.35 MHz 18 nm / 33 km 209.60° 222.40° - 176 ft / 54 m (AMSL)